createdAt,value
2017-02-14T15:17:19.890Z,1032.7
2017-02-14T15:18:28.925Z,1032.59
2017-02-14T15:19:39.448Z,1032.61
2017-02-14T15:20:48.600Z,1032.68
2017-02-14T15:21:59.375Z,1032.71
2017-02-14T15:23:08.614Z,1032.7
2017-02-14T15:24:18.376Z,1032.66
2017-02-14T15:25:27.704Z,1032.66
2017-02-14T15:26:37.047Z,1032.69
2017-02-14T15:27:46.121Z,1032.69
2017-02-14T15:28:55.721Z,1032.67
2017-02-14T15:30:04.876Z,1032.69
2017-02-14T15:31:14.592Z,1032.68
2017-02-14T15:32:25.542Z,1032.7
2017-02-14T15:33:35.919Z,1032.71
2017-02-14T15:34:45.002Z,1032.7
2017-02-14T15:35:56.040Z,1032.7
2017-02-14T15:37:05.324Z,1032.7
2017-02-14T15:38:15.200Z,1032.67
2017-02-14T15:39:24.411Z,1032.67
2017-02-14T15:40:33.616Z,1032.68
2017-02-14T15:41:42.675Z,1032.64
2017-02-14T15:42:51.705Z,1032.67
2017-02-14T15:44:00.749Z,1032.71
2017-02-14T15:45:09.774Z,1032.7
2017-02-14T15:46:18.780Z,1032.71
2017-02-14T15:47:27.820Z,1032.72
2017-02-14T15:48:36.872Z,1032.66
2017-02-14T15:49:46.297Z,1032.65
2017-02-14T15:50:55.463Z,1032.58
2017-02-14T15:52:04.971Z,1032.6
2017-02-14T15:53:14.083Z,1032.59
2017-02-14T15:54:23.453Z,1032.63
2017-02-14T15:55:32.486Z,1032.6
2017-02-14T15:56:41.947Z,1032.58
2017-02-14T15:57:50.985Z,1032.6
2017-02-14T15:59:00.615Z,1032.63
2017-02-14T16:00:09.647Z,1032.62
2017-02-14T16:01:19.179Z,1032.63
2017-02-14T16:02:28.631Z,1032.63
2017-02-14T16:03:37.683Z,1032.67
2017-02-14T16:04:46.736Z,1032.65
2017-02-14T16:05:55.996Z,1032.67
2017-02-14T16:07:05.016Z,1032.61
2017-02-14T16:08:14.049Z,1032.62
2017-02-14T16:09:23.077Z,1032.64
2017-02-14T16:10:32.092Z,1032.6
2017-02-14T16:11:41.528Z,1032.67
2017-02-14T16:12:50.548Z,1032.65
2017-02-14T16:13:59.583Z,1032.64
2017-02-14T16:15:08.615Z,1032.7
2017-02-14T16:16:17.626Z,1032.68
2017-02-14T16:17:26.666Z,1032.68
2017-02-14T16:18:35.695Z,1032.71
2017-02-14T16:19:44.728Z,1032.71
2017-02-14T16:20:53.754Z,1032.73
2017-02-14T16:22:02.898Z,1032.76
2017-02-14T16:23:15.006Z,1032.81
2017-02-14T16:24:24.959Z,1032.8
2017-02-14T16:25:34.399Z,1032.81
2017-02-14T16:26:43.543Z,1032.8
2017-02-14T16:27:52.576Z,1032.84
2017-02-14T16:29:01.604Z,1032.84
2017-02-14T16:30:10.638Z,1032.82
2017-02-14T16:31:19.674Z,1032.85
2017-02-14T16:32:28.708Z,1032.87
2017-02-14T16:33:37.745Z,1032.89
2017-02-14T16:34:46.762Z,1032.89
2017-02-14T16:35:55.830Z,1032.86
2017-02-14T16:37:04.852Z,1032.88
2017-02-14T16:38:13.886Z,1032.89
2017-02-14T16:39:22.918Z,1032.92
2017-02-14T16:40:31.952Z,1032.88
2017-02-14T16:41:40.979Z,1032.9
2017-02-14T16:42:50.021Z,1032.89
2017-02-14T16:43:59.093Z,1032.9
2017-02-14T16:45:08.120Z,1032.9
2017-02-14T16:46:17.152Z,1032.88
2017-02-14T16:47:26.177Z,1032.87
2017-02-14T16:48:35.204Z,1032.83
2017-02-14T16:49:44.243Z,1032.86
2017-02-14T16:50:53.270Z,1032.9
2017-02-14T16:52:02.309Z,1032.93
2017-02-14T16:53:11.330Z,1032.92
2017-02-14T16:54:20.372Z,1032.97
2017-02-14T16:55:29.403Z,1032.98
2017-02-14T16:56:38.429Z,1032.97
2017-02-14T16:57:47.457Z,1032.95
2017-02-14T16:58:56.481Z,1033.01
2017-02-14T17:00:05.531Z,1033
2017-02-14T17:01:14.975Z,1033
2017-02-14T17:02:24.041Z,1033.04
2017-02-14T17:03:33.061Z,1033.06
2017-02-14T17:04:42.114Z,1033.08
2017-02-14T17:05:51.139Z,1033.04
2017-02-14T17:07:00.176Z,1033.08
2017-02-14T17:08:09.231Z,1033.07
2017-02-14T17:09:18.267Z,1033.09
2017-02-14T17:10:27.277Z,1033.11
2017-02-14T17:11:36.343Z,1033.12
2017-02-14T17:12:45.361Z,1033.15
2017-02-14T17:13:54.791Z,1033.14
2017-02-14T17:15:03.834Z,1033.18
2017-02-14T17:16:12.881Z,1033.2
2017-02-14T17:17:22.331Z,1033.19
2017-02-14T17:18:31.373Z,1033.18
2017-02-14T17:19:40.819Z,1033.17
2017-02-14T17:20:49.866Z,1033.15
2017-02-14T17:21:58.877Z,1033.11
2017-02-14T17:23:08.309Z,1033.12
2017-02-14T17:24:17.357Z,1033.13
2017-02-14T17:25:26.378Z,1033.1
2017-02-14T17:26:35.407Z,1033.13
2017-02-14T17:27:44.430Z,1033.08
2017-02-14T17:28:53.445Z,1033.11
2017-02-14T17:30:02.468Z,1033.09
2017-02-14T17:31:11.506Z,1033.12
2017-02-14T17:32:20.536Z,1033.09
2017-02-14T17:33:29.577Z,1033.12
2017-02-14T17:34:38.601Z,1033.1
2017-02-14T17:35:47.637Z,1033.12
2017-02-14T17:36:56.671Z,1033.13
2017-02-14T17:38:06.138Z,1033.1
2017-02-14T17:39:15.174Z,1033.14
2017-02-14T17:40:24.230Z,1033.12
2017-02-14T17:41:33.253Z,1033.12
2017-02-14T17:42:42.287Z,1033.18
2017-02-14T17:43:51.302Z,1033.14
2017-02-14T17:45:00.347Z,1033.14
2017-02-14T17:46:09.386Z,1033.16
2017-02-14T17:47:18.447Z,1033.16
2017-02-14T17:48:27.490Z,1033.13
2017-02-14T17:49:36.514Z,1033.18
2017-02-14T17:50:45.555Z,1033.16
2017-02-14T17:51:54.590Z,1033.14
2017-02-14T17:53:03.627Z,1033.15
2017-02-14T17:54:12.696Z,1033.15
2017-02-14T17:55:21.728Z,1033.12
2017-02-14T17:56:30.749Z,1033.17
2017-02-14T17:57:39.773Z,1033.13
2017-02-14T17:58:48.812Z,1033.13
2017-02-14T17:59:58.255Z,1033.09
2017-02-14T18:01:07.714Z,1033.12
2017-02-14T18:02:16.758Z,1033.14
2017-02-14T18:03:25.788Z,1033.12
2017-02-14T18:04:34.829Z,1033.12
2017-02-14T18:05:43.867Z,1033.14
2017-02-14T18:06:52.912Z,1033.16
2017-02-14T18:08:01.952Z,1033.17
2017-02-14T18:09:10.985Z,1033.17
2017-02-14T18:10:20.028Z,1033.16
2017-02-14T18:11:29.046Z,1033.2
2017-02-14T18:12:38.504Z,1033.2
2017-02-14T18:13:47.524Z,1033.16
2017-02-14T18:14:56.553Z,1033.15
2017-02-14T18:16:05.587Z,1033.16
2017-02-14T18:17:14.620Z,1033.15
2017-02-14T18:18:23.665Z,1033.16
2017-02-14T18:19:32.691Z,1033.16
2017-02-14T18:20:41.733Z,1033.11
2017-02-14T18:21:51.162Z,1033.13
2017-02-14T18:23:00.189Z,1033.11
2017-02-14T18:24:09.209Z,1033.12
2017-02-14T18:25:18.235Z,1033.13
2017-02-14T18:26:27.256Z,1033.12
2017-02-14T18:27:36.296Z,1033.12
2017-02-14T18:28:45.327Z,1033.09
2017-02-14T18:29:54.395Z,1033.07
2017-02-14T18:31:03.474Z,1033.06
2017-02-14T18:32:12.512Z,1033.07
2017-02-14T18:33:21.553Z,1033.11
2017-02-14T18:34:30.595Z,1033.05
2017-02-14T18:35:39.654Z,1033.07
2017-02-14T18:36:49.105Z,1033.09
2017-02-14T18:37:58.162Z,1033.06
2017-02-14T18:39:07.197Z,1033.06
2017-02-14T18:40:16.216Z,1033.03
2017-02-14T18:41:25.257Z,1033.06
2017-02-14T18:42:34.287Z,1033.03
2017-02-14T18:43:43.316Z,1033.04
2017-02-14T18:44:52.351Z,1033.11
2017-02-14T18:46:01.378Z,1033.1
2017-02-14T18:47:10.423Z,1033.14
2017-02-14T18:48:19.449Z,1033.12
2017-02-14T18:49:28.479Z,1033.15
2017-02-14T18:50:37.530Z,1033.15
2017-02-14T18:51:46.583Z,1033.13
2017-02-14T18:52:55.634Z,1033.16
2017-02-14T18:54:04.646Z,1033.13
2017-02-14T18:55:13.724Z,1033.14
2017-02-14T18:56:23.470Z,1033.11
2017-02-14T18:57:33.393Z,1033.09
2017-02-14T18:58:42.436Z,1033.13
2017-02-14T18:59:51.517Z,1033.09
2017-02-14T19:01:00.624Z,1033.09
2017-02-14T19:02:09.686Z,1033.13
2017-02-14T19:03:18.727Z,1033.13
2017-02-14T19:04:27.754Z,1033.14
2017-02-14T19:05:36.808Z,1033.14
2017-02-14T19:06:45.840Z,1033.18
2017-02-14T19:07:54.870Z,1033.19
2017-02-14T19:09:03.914Z,1033.23
2017-02-14T19:10:13.262Z,1033.21
2017-02-14T19:11:22.322Z,1033.21
2017-02-14T19:12:31.416Z,1033.2
2017-02-14T19:13:40.485Z,1033.23
2017-02-14T19:14:49.541Z,1033.22
2017-02-14T19:15:58.620Z,1033.27
2017-02-14T19:17:07.774Z,1033.24
2017-02-14T19:18:16.963Z,1033.24
2017-02-14T19:19:26.443Z,1033.21
2017-02-14T19:20:35.591Z,1033.19
2017-02-14T19:21:44.760Z,1033.2
2017-02-14T19:22:53.908Z,1033.23
2017-02-14T19:24:02.990Z,1033.22
2017-02-14T19:25:12.113Z,1033.21
2017-02-14T19:26:21.201Z,1033.22
2017-02-14T19:27:30.493Z,1033.22
2017-02-14T19:28:39.715Z,1033.24
2017-02-14T19:29:48.917Z,1033.2
2017-02-14T19:30:58.045Z,1033.21
2017-02-14T19:32:07.255Z,1033.2
2017-02-14T19:33:16.479Z,1033.2
2017-02-14T19:34:25.690Z,1033.19
2017-02-14T19:35:34.866Z,1033.2
2017-02-14T19:36:44.046Z,1033.2
2017-02-14T19:37:53.400Z,1033.19
2017-02-14T19:39:03.159Z,1033.17
2017-02-14T19:40:12.377Z,1033.18
2017-02-14T19:41:21.711Z,1033.19
2017-02-14T19:42:31.280Z,1033.21
2017-02-14T19:43:40.388Z,1033.23
2017-02-14T19:44:49.466Z,1033.23
2017-02-14T19:45:59.071Z,1033.26
2017-02-14T19:47:08.231Z,1033.19
2017-02-14T19:48:17.357Z,1033.22
2017-02-14T19:49:26.566Z,1033.23
2017-02-14T19:50:35.699Z,1033.21
2017-02-14T19:51:44.856Z,1033.22
2017-02-14T19:52:53.937Z,1033.22
2017-02-14T19:54:03.085Z,1033.24
2017-02-14T19:55:12.681Z,1033.27
2017-02-14T19:56:21.904Z,1033.26
2017-02-14T19:57:32.232Z,1033.27
2017-02-14T19:58:41.876Z,1033.23
2017-02-14T19:59:51.097Z,1033.2
2017-02-14T20:01:00.750Z,1033.21
2017-02-14T20:02:09.890Z,1033.18
2017-02-14T20:03:19.076Z,1033.17
2017-02-14T20:04:28.223Z,1033.12
2017-02-14T20:05:37.628Z,1033.17
2017-02-14T20:06:47.008Z,1033.16
2017-02-14T20:07:56.135Z,1033.15
2017-02-14T20:09:05.326Z,1033.16
2017-02-14T20:10:14.406Z,1033.16
2017-02-14T20:11:23.515Z,1033.16
2017-02-14T20:12:33.000Z,1033.16
2017-02-14T20:13:42.120Z,1033.15
2017-02-14T20:14:51.206Z,1033.14
2017-02-14T20:16:00.744Z,1033.15
2017-02-14T20:17:09.887Z,1033.14
2017-02-14T20:18:19.038Z,1033.16
2017-02-14T20:19:28.911Z,1033.14
2017-02-14T20:20:38.250Z,1033.16
2017-02-14T20:21:47.795Z,1033.13
2017-02-14T20:22:57.268Z,1033.15
2017-02-14T20:24:06.461Z,1033.15
2017-02-14T20:25:16.031Z,1033.17
2017-02-14T20:26:25.145Z,1033.19
2017-02-14T20:27:34.240Z,1033.22
2017-02-14T20:28:44.309Z,1033.21
2017-02-14T20:29:53.433Z,1033.2
2017-02-14T20:31:03.094Z,1033.18
2017-02-14T20:32:12.215Z,1033.15
2017-02-14T20:33:21.283Z,1033.14
2017-02-14T20:34:30.385Z,1033.17
2017-02-14T20:35:39.442Z,1033.14
2017-02-14T20:36:48.562Z,1033.14
2017-02-14T20:37:57.650Z,1033.15
2017-02-14T20:39:06.764Z,1033.12
2017-02-14T20:40:15.848Z,1033.15
2017-02-14T20:41:24.939Z,1033.12
2017-02-14T20:42:34.037Z,1033.14
2017-02-14T20:43:43.094Z,1033.11
2017-02-14T20:44:52.610Z,1033.08
2017-02-14T20:46:01.672Z,1033.08
2017-02-14T20:47:10.726Z,1033.09
2017-02-14T20:48:19.778Z,1033.08
2017-02-14T20:49:28.829Z,1033.06
2017-02-14T20:50:37.892Z,1033.12
2017-02-14T20:51:46.936Z,1033.12
2017-02-14T20:52:55.954Z,1033.11
2017-02-14T20:54:04.989Z,1033.17
2017-02-14T20:55:14.031Z,1033.11
2017-02-14T20:56:23.082Z,1033.13
2017-02-14T20:57:32.103Z,1033.07
2017-02-14T20:58:41.183Z,1033.06
2017-02-14T20:59:50.205Z,1033.05
2017-02-14T21:00:59.231Z,1033.04
2017-02-14T21:02:08.677Z,1033
2017-02-14T21:03:18.118Z,1033.05
2017-02-14T21:04:27.142Z,1033.09
2017-02-14T21:05:36.173Z,1033.01
2017-02-14T21:06:45.221Z,1032.98
2017-02-14T21:07:54.250Z,1033
2017-02-14T21:09:03.654Z,1032.98
2017-02-14T21:10:13.085Z,1032.97
2017-02-14T21:11:22.117Z,1032.98
2017-02-14T21:12:31.572Z,1032.98
2017-02-14T21:13:40.633Z,1032.98
2017-02-14T21:14:50.062Z,1032.96
2017-02-14T21:15:59.089Z,1032.96
2017-02-14T21:17:08.520Z,1032.94
2017-02-14T21:18:18.108Z,1032.91
2017-02-14T21:19:27.171Z,1032.94
2017-02-14T21:20:36.308Z,1032.92
2017-02-14T21:21:45.402Z,1032.98
2017-02-14T21:22:54.515Z,1032.97
2017-02-14T21:24:03.577Z,1032.97
2017-02-14T21:25:12.615Z,1032.95
2017-02-14T21:26:22.055Z,1032.91
2017-02-14T21:27:31.098Z,1032.96
2017-02-14T21:28:40.142Z,1032.96
2017-02-14T21:29:49.399Z,1032.96
2017-02-14T21:30:58.423Z,1032.97
2017-02-14T21:32:07.463Z,1032.99
2017-02-14T21:33:16.483Z,1032.97
2017-02-14T21:34:25.514Z,1032.98
2017-02-14T21:35:34.964Z,1032.97
2017-02-14T21:36:44.018Z,1032.98
2017-02-14T21:37:53.046Z,1032.98
2017-02-14T21:39:02.083Z,1032.98
2017-02-14T21:40:11.124Z,1033
2017-02-14T21:41:20.152Z,1032.99
2017-02-14T21:42:29.190Z,1032.95
2017-02-14T21:43:38.657Z,1032.96
2017-02-14T21:44:47.698Z,1032.96
2017-02-14T21:45:57.553Z,1032.91
2017-02-14T21:47:06.998Z,1032.99
2017-02-14T21:48:16.012Z,1032.99
2017-02-14T21:49:25.040Z,1033.06
2017-02-14T21:50:34.177Z,1033.08
2017-02-14T21:51:43.204Z,1033.07
2017-02-14T21:52:52.987Z,1033.08
2017-02-14T21:54:02.002Z,1033.1
2017-02-14T21:55:11.019Z,1033.12
2017-02-14T21:56:20.076Z,1033.18
2017-02-14T21:57:29.100Z,1033.15
2017-02-14T21:58:38.545Z,1033.2
2017-02-14T21:59:47.604Z,1033.17
2017-02-14T22:00:56.652Z,1033.19
2017-02-14T22:02:06.099Z,1033.18
2017-02-14T22:03:15.116Z,1033.17
2017-02-14T22:04:24.168Z,1033.17
2017-02-14T22:05:33.191Z,1033.15
2017-02-14T22:06:42.219Z,1033.16
2017-02-14T22:07:51.238Z,1033.15
2017-02-14T22:09:00.272Z,1033.18
2017-02-14T22:10:09.319Z,1033.18
2017-02-14T22:11:18.334Z,1033.17
2017-02-14T22:12:27.776Z,1033.14
2017-02-14T22:13:36.793Z,1033.09
2017-02-14T22:14:45.824Z,1033.07
2017-02-14T22:15:54.858Z,1033.16
2017-02-14T22:17:03.892Z,1033.08
2017-02-14T22:18:13.357Z,1033.09
2017-02-14T22:19:22.796Z,1033.1
2017-02-14T22:20:31.823Z,1033.11
2017-02-14T22:21:40.881Z,1033.15
2017-02-14T22:22:49.915Z,1033.14
2017-02-14T22:23:59.429Z,1033.15
2017-02-14T22:25:08.466Z,1033.14
2017-02-14T22:26:17.903Z,1033.09
2017-02-14T22:27:26.924Z,1033.12
2017-02-14T22:28:36.383Z,1033.17
2017-02-14T22:29:45.398Z,1033.1
2017-02-14T22:30:54.423Z,1033.09
2017-02-14T22:32:03.446Z,1033.11
2017-02-14T22:33:12.485Z,1033.03
2017-02-14T22:34:21.512Z,1033.07
2017-02-14T22:35:30.565Z,1033.1
2017-02-14T22:36:40.868Z,1033.03
2017-02-14T22:37:49.891Z,1033.05
2017-02-14T22:38:58.922Z,1033.02
2017-02-14T22:40:07.946Z,1032.98
2017-02-14T22:41:16.981Z,1032.99
2017-02-14T22:42:26.420Z,1033
2017-02-14T22:43:35.446Z,1032.95
2017-02-14T22:44:44.465Z,1032.98
2017-02-14T22:45:53.901Z,1032.96
2017-02-14T22:47:02.931Z,1032.93
2017-02-14T22:48:11.948Z,1032.93
2017-02-14T22:49:21.004Z,1032.98
2017-02-14T22:50:30.024Z,1032.93
2017-02-14T22:51:39.041Z,1032.92
2017-02-14T22:52:48.076Z,1032.94
2017-02-14T22:53:57.505Z,1032.94
2017-02-14T22:55:06.545Z,1032.95
2017-02-14T22:56:15.974Z,1032.96
2017-02-14T22:57:25.010Z,1032.97
2017-02-14T22:58:34.023Z,1032.97
2017-02-14T22:59:43.042Z,1032.97
2017-02-14T23:00:52.087Z,1032.98
2017-02-14T23:02:01.534Z,1032.96
2017-02-14T23:03:10.555Z,1033
2017-02-14T23:04:19.984Z,1033.01
2017-02-14T23:05:29.429Z,1033.01
2017-02-14T23:06:38.462Z,1032.99
2017-02-14T23:07:47.490Z,1033
2017-02-14T23:08:56.513Z,1033.01
2017-02-14T23:10:05.546Z,1033.02
2017-02-14T23:11:14.590Z,1033.03
2017-02-14T23:12:23.636Z,1033.03
2017-02-14T23:13:32.679Z,1033.05
2017-02-14T23:14:41.717Z,1033.1
2017-02-14T23:15:50.772Z,1033.06
2017-02-14T23:16:59.796Z,1033.06
2017-02-14T23:18:09.256Z,1033.08
2017-02-14T23:19:18.296Z,1033.07
2017-02-14T23:20:27.320Z,1033.03
2017-02-14T23:21:36.374Z,1033.09
2017-02-14T23:22:45.398Z,1033.07
2017-02-14T23:23:54.843Z,1033.08
2017-02-14T23:25:03.884Z,1033.07
2017-02-14T23:26:12.905Z,1033.04
2017-02-14T23:27:21.928Z,1033.07
2017-02-14T23:28:30.953Z,1033.05
2017-02-14T23:29:39.967Z,1033.04
2017-02-14T23:30:48.993Z,1033.01
2017-02-14T23:31:58.010Z,1033.05
2017-02-14T23:33:07.463Z,1033.08
2017-02-14T23:34:16.482Z,1033.07
2017-02-14T23:35:25.505Z,1033.08
2017-02-14T23:36:34.550Z,1033.12
2017-02-14T23:37:44.082Z,1033.1
2017-02-14T23:38:53.118Z,1033.13
2017-02-14T23:40:02.550Z,1033.1
2017-02-14T23:41:11.584Z,1033.09
2017-02-14T23:42:20.606Z,1033.13
2017-02-14T23:43:29.645Z,1033.09
2017-02-14T23:44:39.090Z,1033.12
2017-02-14T23:45:48.119Z,1033.1
2017-02-14T23:46:57.830Z,1033.08
2017-02-14T23:48:06.853Z,1033.11
2017-02-14T23:49:15.880Z,1033.08
2017-02-14T23:50:24.943Z,1033.09
2017-02-14T23:51:33.970Z,1033.06
2017-02-14T23:52:43.009Z,1033.05
2017-02-14T23:53:52.041Z,1033.08
2017-02-14T23:55:01.077Z,1033.11
2017-02-14T23:56:10.087Z,1033.12
2017-02-14T23:57:19.109Z,1033.16
2017-02-14T23:58:28.973Z,1033.19
2017-02-14T23:59:38.016Z,1033.18
